Latest Weather Observations for Ngayawili (Elcho Island)

IDD60801

Issued at 10:21 pm CST Sunday 25 October 2020 (issued every 10 minutes, with the page automatically refreshed every 10 minutes)

About weather observations | Map of weather stations | Latest weather observations for NT | Other Formats
Station Details ID: 014517 Name: NGAYAWILI Lat: -12.00 Lon: 135.57 Height: 8.1 m
Data from the previous 72 hours. | See also: Recent months at Ngayawili (Elcho Island)
Date/Time
CST
Temp
°C
App
Temp
°C
Dew
Point
°C
Rel
Hum
%
Delta-T
°C
Wind Press
QNH
hPa
Press
MSL
hPa
Rain since
9am
mm
Dir  Spd
km/h
Gust
km/h
Spd
kts
Gust
kts
25/10:00pm 28.2 30.3 23.8 77 3.0 N 19 20 10 11 1010.2 1010.1 0.0
25/09:30pm 28.2 30.7 23.8 77 3.0 N 17 20 9 11 1010.3 1010.2 0.0
25/09:00pm 28.1 30.0 23.7 77 3.0 N 20 24 11 13 1009.9 1009.8 0.0
25/08:30pm 28.2 30.2 23.6 76 3.2 N 19 24 10 13 1009.4 1009.3 0.0
25/08:00pm 28.3 30.2 23.7 76 3.2 N 20 26 11 14 1009.0 1008.9 0.0
25/07:30pm 28.3 30.2 23.7 76 3.2 N 20 24 11 13 1008.4 1008.3 0.0
25/07:00pm 28.5 29.9 23.6 75 3.4 N 22 26 12 14 1007.8 1007.7 0.0
25/06:30pm 28.7 30.6 23.8 75 3.4 N 20 26 11 14 1007.7 1007.6 0.0
25/06:00pm 29.2 30.4 23.2 70 4.1 N 22 26 12 14 1007.5 1007.4 0.0
25/05:30pm 29.5 30.8 22.7 67 4.6 N 20 26 11 14 1007.5 1007.4 0.0
25/05:00pm 30.2 31.3 23.1 65 4.9 N 22 26 12 14 1007.5 1007.4 0.0
25/04:30pm 30.5 31.5 22.9 64 5.2 N 22 28 12 15 1007.3 1007.2 0.0
25/04:00pm 30.9 32.0 23.0 62 5.4 N 22 26 12 14 1007.5 1007.4 0.0
25/03:30pm 30.9 32.0 23.0 62 5.4 N 22 30 12 16 1007.8 1007.7 0.0
25/03:00pm 31.6 32.7 23.7 63 5.5 N 24 28 13 15 1008.4 1008.3 0.0
25/02:30pm 31.0 31.3 22.3 60 5.9 N 24 28 13 15 1008.8 1008.7 0.0
25/02:00pm 30.8 31.2 23.2 64 5.2 N 26 30 14 16 1009.2 1009.1 0.0
25/01:30pm 31.3 32.4 23.7 64 5.3 N 24 28 13 15 1009.8 1009.7 0.0
25/01:00pm 31.3 32.1 23.1 61 5.6 N 24 26 13 14 1010.5 1010.4 0.0
25/12:30pm 31.3 31.6 22.9 61 5.8 N 26 30 14 16 1010.9 1010.8 0.0
25/12:00pm 31.0 32.0 22.9 62 5.6 N 22 24 12 13 1011.4 1011.3 0.0
25/11:30am 31.2 32.7 23.0 61 5.6 N 20 24 11 13 1011.9 1011.8 0.0
25/11:00am 31.3 33.0 23.4 63 5.5 N 20 24 11 13 1012.4 1012.3 0.0
25/10:30am 31.1 32.4 22.4 60 5.9 N 19 20 10 11 1012.8 1012.7 0.0
25/10:00am 30.1 32.1 23.0 65 4.9 N 17 20 9 11 1012.9 1012.8 0.0
25/09:30am 30.0 32.7 22.9 65 4.9 NNW 13 17 7 9 1013.0 1012.9 0.0
25/09:00am 29.3 32.4 22.8 68 4.4 N 11 13 6 7 1012.8 1012.7 0.0
25/08:30am 29.5 32.8 23.2 69 4.3 N 11 15 6 8 1012.5 1012.4 0.0
25/08:00am 28.8 31.1 23.5 73 3.6 N 17 20 9 11 1011.8 1011.7 0.0
25/07:30am 28.2 29.6 22.9 73 3.6 N 20 26 11 14 1011.2 1011.1 0.0
25/07:00am 28.0 29.0 22.9 74 3.5 N 22 26 12 14 1010.3 1010.2 0.0
25/06:30am 27.8 28.2 23.2 76 3.1 N 26 30 14 16 1009.9 1009.8 0.0
25/06:00am 27.6 28.5 23.4 78 2.9 N 24 30 13 16 1009.6 1009.5 0.0
25/05:30am 27.6 28.3 23.6 79 2.7 N 26 30 14 16 1009.1 1009.0 0.0
25/05:00am 27.5 29.5 22.9 76 3.1 N 17 20 9 11 1009.1 1009.0 0.0
25/04:30am 27.3 30.0 22.9 77 3.0 NNW 13 15 7 8 1008.6 1008.5 0.0
25/04:00am 27.4 30.5 22.8 76 3.1 WNW 11 15 6 8 1008.7 1008.6 0.0
25/03:30am 27.4 30.7 23.2 78 2.9 NW 11 15 6 8 1008.5 1008.4 0.0
25/03:00am 25.4 29.6 22.5 84 2.0 ENE 4 7 2 4 1008.6 1008.5 0.0
25/02:30am 25.5 30.0 23.0 86 1.7 SE 4 6 2 3 1009.0 1008.9 0.0
25/02:00am 25.2 29.1 22.5 85 1.8 SE 6 7 3 4 1009.4 1009.3 0.0
25/01:30am 25.6 29.5 22.9 85 1.8 SE 7 9 4 5 1009.8 1009.7 0.0
25/01:00am 25.4 29.2 22.7 85 1.8 SE 7 9 4 5 1010.2 1010.1 0.0
25/12:30am 25.4 28.7 22.5 84 2.0 SSE 9 9 5 5 1010.5 1010.4 0.0
25/12:00am 25.1 28.2 22.2 84 1.9 SE 9 9 5 5 1010.6 1010.5 0.0
 
Date/Time
CST
Temp
°C
App
Temp
°C
Dew
Point
°C
Rel
Hum
%
Delta-T
°C
Wind Press
QNH
hPa
Press
MSL
hPa
Rain since
9am
mm
Dir  Spd
km/h
Gust
km/h
Spd
kts
Gust
kts
24/11:30pm 25.7 29.3 22.4 82 2.2 ESE 7 7 4 4 1010.8 1010.7 0.0
24/11:00pm 25.3 28.4 22.2 83 2.1 SE 9 11 5 6 1011.6 1011.5 0.0
24/10:30pm 25.1 28.0 21.8 82 2.2 NNE 9 13 5 7 1011.3 1011.2 0.0
24/10:00pm 25.8 29.3 22.1 80 2.5 NNE 7 9 4 5 1011.2 1011.1 0.0
24/09:30pm 26.1 29.5 22.0 78 2.7 ESE 7 7 4 4 1011.1 1011.0 0.0
24/09:00pm 27.4 30.6 22.4 74 3.4 NNE 9 15 5 8 1010.7 1010.6 0.0
24/08:30pm 27.8 30.3 22.5 73 3.6 NNE 13 20 7 11 1010.5 1010.4 0.0
24/08:00pm 27.9 29.3 22.6 73 3.6 N 19 22 10 12 1010.1 1010.0 0.0
24/07:30pm 28.0 29.1 22.0 70 4.0 NNE 19 24 10 13 1009.1 1009.0 0.0
24/07:00pm 28.0 29.1 22.0 70 4.0 NNE 19 26 10 14 1008.9 1008.8 0.0
24/06:30pm 28.3 30.1 22.5 71 3.9 NNE 17 22 9 12 1008.8 1008.7 0.0
24/06:00pm 28.8 29.9 23.0 71 4.0 N 22 26 12 14 1008.8 1008.7 0.0
24/05:30pm 29.5 31.0 23.7 71 4.0 N 22 24 12 13 1008.6 1008.5 0.0
24/05:00pm 29.8 30.9 23.0 67 4.7 N 22 28 12 15 1008.3 1008.2 0.0
24/04:30pm 30.0 30.5 22.7 65 5.0 N 24 28 13 15 1008.3 1008.2 0.0
24/04:00pm 30.3 31.4 23.0 65 5.0 N 22 26 12 14 1008.2 1008.1 0.0
24/03:30pm 30.6 32.1 23.0 64 5.2 N 20 24 11 13 1008.5 1008.4 0.0
24/03:00pm 31.1 32.6 23.0 62 5.6 N 20 22 11 12 1008.8 1008.7 0.0
24/02:30pm 30.9 32.4 23.0 62 5.4 N 20 26 11 14 1009.1 1009.0 0.0
24/02:00pm 31.4 33.0 23.2 61 5.6 N 20 24 11 13 1009.4 1009.3 0.0
24/01:30pm 31.8 33.1 23.3 60 5.9 N 22 26 12 14 1009.7 1009.6 0.0
24/01:00pm 31.0 32.7 23.4 64 5.2 N 20 26 11 14 1010.1 1010.0 0.0
24/12:30pm 31.2 33.0 23.6 64 5.3 N 20 26 11 14 1010.7 1010.6 0.0
24/12:00pm 31.2 33.0 23.3 63 5.5 N 19 24 10 13 1011.1 1011.0 0.0
24/11:30am 31.3 33.5 23.9 64 5.1 N 19 22 10 12 1011.4 1011.3 0.0
24/11:00am 31.1 33.2 23.7 64 5.1 N 19 20 10 11 1011.6 1011.5 0.0
24/10:30am 30.7 32.4 23.4 65 5.0 N 20 22 11 12 1011.9 1011.8 0.0
24/10:00am 30.1 32.3 23.3 67 4.7 N 17 20 9 11 1011.9 1011.8 0.0
24/09:30am 29.7 32.4 22.9 67 4.6 N 13 17 7 9 1012.0 1011.9 0.0
24/09:00am 29.5 31.7 23.2 69 4.3 N 17 20 9 11 1011.8 1011.7 0.0
24/08:30am 29.3 31.9 23.3 70 4.1 N 15 17 8 9 1011.7 1011.6 0.0
24/08:00am 28.9 31.5 23.3 72 3.8 N 15 19 8 10 1011.7 1011.6 0.0
24/07:30am 28.5 31.2 23.4 74 3.5 N 15 17 8 9 1011.4 1011.3 0.0
24/07:00am 28.0 31.3 23.2 75 3.3 N 11 17 6 9 1011.4 1011.3 0.0
24/06:30am 27.6 30.4 23.0 76 3.1 NNW 13 17 7 9 1011.1 1011.0 0.0
24/06:00am 27.3 29.3 22.9 77 3.0 N 17 20 9 11 1010.6 1010.5 0.0
24/05:30am 27.5 29.5 22.9 76 3.1 N 17 20 9 11 1010.3 1010.2 0.0
24/05:00am 27.5 29.5 22.9 76 3.1 N 17 20 9 11 1010.1 1010.0 0.0
24/04:30am 27.5 29.0 22.7 75 3.3 N 19 20 10 11 1010.0 1009.9 0.0
24/04:00am 27.5 28.9 22.9 76 3.1 N 20 26 11 14 1009.7 1009.6 0.0
24/03:30am 27.4 28.8 22.8 76 3.1 N 20 26 11 14 1009.5 1009.4 0.0
24/03:00am 27.6 28.8 23.2 77 3.0 N 22 26 12 14 1009.7 1009.6 0.0
24/02:30am 27.6 28.7 23.0 76 3.1 N 22 26 12 14 1009.8 1009.7 0.0
24/02:00am 27.4 29.4 23.0 77 3.0 NNE 17 22 9 12 1010.2 1010.1 0.0
24/01:30am 26.0 29.8 23.5 86 1.7 ENE 9 13 5 7 1010.3 1010.2 0.0
24/01:00am 25.9 29.9 23.8 88 1.4 E 9 11 5 6 1010.8 1010.7 0.0
24/12:30am 25.2 29.1 22.9 87 1.6 ENE 7 11 4 6 1010.9 1010.8 0.0
24/12:00am 25.6 29.2 23.1 86 1.7 NE 9 11 5 6 1011.0 1010.9 0.0
 
Date/Time
CST
Temp
°C
App
Temp
°C
Dew
Point
°C
Rel
Hum
%
Delta-T
°C
Wind Press
QNH
hPa
Press
MSL
hPa
Rain since
9am
mm
Dir  Spd
km/h
Gust
km/h
Spd
kts
Gust
kts
23/11:30pm 24.8 28.5 22.3 86 1.7 SE 6 7 3 4 1011.1 1011.0 0.0
23/11:00pm 25.7 29.5 22.8 84 2.0 SE 7 7 4 4 1011.4 1011.3 0.0
23/10:30pm 26.2 29.8 23.1 83 2.1 SE 9 9 5 5 1011.4 1011.3 0.0
23/10:00pm 25.7 29.8 23.0 85 1.8 E 6 7 3 4 1011.0 1010.9 0.0
23/09:30pm 26.0 29.4 22.7 82 2.2 NE 9 11 5 6 1010.3 1010.2 0.0
23/09:00pm 26.7 30.3 23.0 80 2.5 NE 9 11 5 6 1010.0 1009.9 0.0
23/08:30pm 27.4 31.3 23.0 77 3.0 NNE 7 13 4 7 1009.4 1009.3 0.0
23/08:00pm 28.0 30.2 23.2 75 3.3 N 17 20 9 11 1009.0 1008.9 0.0
23/07:30pm 28.0 30.0 23.6 77 3.0 N 19 20 10 11 1008.4 1008.3 0.0
23/07:00pm 28.2 30.3 23.8 77 3.0 N 19 22 10 12 1008.3 1008.2 0.0
23/06:30pm 28.4 30.2 23.5 75 3.4 N 20 24 11 13 1007.7 1007.6 0.0
23/06:00pm 28.9 30.7 23.3 72 3.8 N 19 20 10 11 1007.8 1007.7 0.0
23/05:30pm 29.3 31.0 23.0 69 4.3 N 19 22 10 12 1007.8 1007.7 0.0
23/05:00pm 29.8 31.7 23.5 69 4.3 N 19 22 10 12 1007.8 1007.7 0.0
23/04:30pm 30.3 32.7 23.7 68 4.6 NNW 17 20 9 11 1007.7 1007.6 0.0
23/04:00pm 30.7 32.7 23.6 66 4.9 N 19 20 10 11 1007.7 1007.6 0.0
23/03:30pm 30.4 32.2 23.6 67 4.7 N 20 24 11 13 1007.9 1007.8 0.0
23/03:00pm 30.6 32.7 23.8 67 4.7 N 19 22 10 12 1008.1 1008.0 0.0
23/02:30pm 31.0 33.3 24.1 66 4.8 N 19 22 10 12 1008.5 1008.4 0.0
23/02:00pm 31.1 33.3 24.0 66 4.9 NNW 19 20 10 11 1009.0 1008.9 0.0
23/01:30pm 31.5 34.2 24.1 65 5.2 N 17 20 9 11 1009.3 1009.2 0.0
23/01:00pm 31.4 33.6 24.0 65 5.2 N 19 22 10 12 1009.9 1009.8 0.0
23/12:30pm 31.0 33.0 23.9 66 4.9 N 20 24 11 13 1010.4 1010.3 0.0
23/12:00pm 30.6 32.9 23.5 66 4.9 NNW 17 20 9 11 1011.1 1011.0 0.0
23/11:30am 30.6 33.2 23.3 65 5.0 NNW 15 19 8 10 1011.6 1011.5 0.0
23/11:00am 30.5 32.6 23.7 67 4.7 N 19 20 10 11 1011.7 1011.6 0.0
23/10:30am 30.5 33.1 23.9 68 4.6 N 17 20 9 11 1011.8 1011.7 0.0
23/10:00am 30.2 33.7 23.6 67 4.6 NNW 11 15 6 8 1012.1 1012.0 0.0
23/09:30am 29.6 33.2 23.1 68 4.5 NNW 9 11 5 6 1012.1 1012.0 0.0
23/09:00am 29.5 33.3 23.4 69 4.2 NW 9 13 5 7 1012.0 1011.9 0.0
23/08:30am 28.8 32.0 23.7 74 3.5 NNW 13 15 7 8 1011.9 1011.8 0.0
23/08:00am 28.6 31.8 23.7 75 3.4 NNW 13 17 7 9 1011.7 1011.6 0.0
23/07:30am 28.7 32.3 24.3 77 3.1 NNW 13 15 7 8 1011.2 1011.1 0.0
23/07:00am 27.9 31.6 23.9 79 2.8 N 11 15 6 8 1010.8 1010.7 0.0
23/06:30am 27.4 30.7 23.8 81 2.5 N 13 17 7 9 1010.2 1010.1 0.0
23/06:00am 27.1 30.0 23.8 82 2.3 N 15 19 8 10 1009.9 1009.8 0.0
23/05:30am 27.2 30.0 23.7 81 2.4 N 15 17 8 9 1009.7 1009.6 0.0
23/05:00am 27.3 30.0 23.5 80 2.6 NNW 15 17 8 9 1009.5 1009.4 0.0
23/04:30am 27.4 30.2 23.6 80 2.6 NNW 15 17 8 9 1009.1 1009.0 0.0
23/04:00am 27.5 30.2 23.5 79 2.7 NNW 15 19 8 10 1009.2 1009.1 0.0
23/03:30am 27.5 30.7 23.7 80 2.6 NNW 13 17 7 9 1009.3 1009.2 0.0
23/03:00am 27.5 30.6 23.5 79 2.7 NNW 13 17 7 9 1009.3 1009.2 0.0
23/02:30am 27.5 30.4 23.9 81 2.5 NNW 15 17 8 9 1009.3 1009.2 0.0
23/02:00am 27.4 30.7 23.8 81 2.5 N 13 15 7 8 1009.5 1009.4 0.0
23/01:30am 27.6 30.5 23.8 80 2.6 N 15 20 8 11 1009.5 1009.4 0.0
23/01:00am 27.6 30.1 23.8 80 2.6 N 17 20 9 11 1009.6 1009.5 0.0
23/12:30am 27.7 29.7 23.9 80 2.6 N 20 24 11 13 1009.8 1009.7 0.0
23/12:00am 27.7 29.6 23.5 78 2.9 N 19 22 10 12 1010.2 1010.1 0.0
 
Date/Time
CST
Temp
°C
App
Temp
°C
Dew
Point
°C
Rel
Hum
%
Delta-T
°C
Wind Press
QNH
hPa
Press
MSL
hPa
Rain since
9am
mm
Dir  Spd
km/h
Gust
km/h
Spd
kts
Gust
kts
22/11:30pm 27.9 30.0 24.1 80 2.6 N 20 24 11 13 1010.4 1010.3 0.0
22/11:00pm 28.0 30.1 23.8 78 2.9 N 19 20 10 11 1010.6 1010.5 0.0
22/10:30pm 28.0 30.4 23.6 77 3.0 N 17 20 9 11 1010.7 1010.6 0.0

Other formats

Comma delimited format used in spreadsheet applications
http://www.bom.gov.au/fwo/IDD60801/IDD60801.95146.axf

JavaScript Object Notation format (JSON) in row-major order
http://www.bom.gov.au/fwo/IDD60801/IDD60801.95146.json

Data quality

Most of these data are generated automatically and are frequently updated. Quality checks on data are not normally performed. It is possible for incorrect values to appear. Refer to information at About Latest Weather Observations and please check the disclaimer before using these data.